Gainesville Regional Airport
KGNV : now visible

Airfield :











YOU CAN JOIN US ON...

 
LOGIN :

Register | Disclaimer

   EN    FR    IT 

 









Legend :    VFR   Marginal VFR   IFR   Intensive IFR   Very Intensive IFR
Visi :
Ceiling :
>= 8 km
>= 3000ft
5 to 8 km
1000 to 3000 ft
1500m to 5 km
500 to 1000 ft
800 to 1500m
200 to 500 ft
< 800m
< 200 ft
Symbols :   Thunderstorms  Fog  Heavy snow  Heavy precipitations  Wind > 20 kt






- Airport Elevation : 152 ft
- IATA code : GNV


KGNV - Gainesville Regional

CURRENT METAR :
  • 101253Z 35011G18KT 10SM CLR 21/11 A2988 RMK AO2 SLP116 T02110111

EXPIRED METARs :
  • 101157Z 34013G23KT 9SM SCT013 BKN034 OVC060 22/16 A2986 RMK AO2 T02220156
  • 101136Z 29005KT 5SM BR BKN014 BKN025 OVC031 22/21 A2983 RMK AO2 T02220211
  • 101126Z 31005KT 6SM BR SCT012 BKN025 OVC031 22/21 A2983 RMK AO2 T02220211
  • 101116Z 29007KT 6SM BR BKN014 BKN019 OVC031 22/21 A2983 RMK AO2 T02220211
  • 101053Z 27007KT 6SM BR SCT012 BKN016 OVC026 22/21 A2983 RMK AO2 SLP097 T02220211
  • 101040Z 27009KT 6SM BR BKN012 OVC016 22/21 A2982 RMK AO2 T02220211

TAF KGNV
Valid from the 10 at 13:00 until the 11 at 12:00 UTC


101259Z 1013/1112 34010G20KT P6SM OVC050
FM102200 34006KT P6SM SCT250



MET'MAP, your aeronautical weather chart ! - Copyright ORBIFLY December 2007 - Disclaimer

ORBIFLY MET'MAP TEAM :

Programming & Development : Alexandra Zaïnal
Concept & original design : Baudouin d'Aumeries
Assistance for programming : Marc-Olivier Méhu
Technical & hardware support : Manuel Goepfert

Contact : metmap@orbifly.com




SOURCES & CREDITS :

   NOAA       Earth
Advisory